createdAt,value
2023-02-06T00:01:45.423Z,-5.55
2023-02-06T00:04:13.702Z,-5.53
2023-02-06T00:06:42.021Z,-5.58
2023-02-06T00:09:10.927Z,-5.59
2023-02-06T00:11:39.445Z,-5.66
2023-02-06T00:14:08.102Z,-5.82
2023-02-06T00:16:36.810Z,-5.93
2023-02-06T00:19:06.512Z,-5.85
2023-02-06T00:21:34.712Z,-5.70
2023-02-06T00:24:03.752Z,-5.64
2023-02-06T00:26:32.497Z,-5.70
2023-02-06T00:29:00.803Z,-5.83
2023-02-06T00:31:29.308Z,-5.90
2023-02-06T00:33:57.535Z,-5.90
2023-02-06T00:36:28.430Z,-5.89
2023-02-06T00:38:56.743Z,-5.82
2023-02-06T00:41:25.263Z,-5.89
2023-02-06T00:43:53.480Z,-5.95
2023-02-06T00:46:21.835Z,-5.87
2023-02-06T00:48:50.044Z,-5.89
2023-02-06T00:51:18.254Z,-6.04
2023-02-06T00:53:49.572Z,-5.98
2023-02-06T00:56:19.381Z,-5.85
2023-02-06T00:58:48.517Z,-5.77
2023-02-06T01:01:16.750Z,-5.69
2023-02-06T01:03:45.187Z,-5.70
2023-02-06T01:06:13.374Z,-5.82
2023-02-06T01:08:41.565Z,-6.10
2023-02-06T01:11:13.261Z,-6.27
2023-02-06T01:13:41.582Z,-6.30
2023-02-06T01:16:11.124Z,-6.27
2023-02-06T01:18:39.920Z,-6.20
2023-02-06T01:21:10.308Z,-6.06
2023-02-06T01:23:40.524Z,-5.95
2023-02-06T01:26:10.012Z,-5.99
2023-02-06T01:28:40.450Z,-6.11
2023-02-06T01:31:12.442Z,-6.11
2023-02-06T01:33:41.298Z,-6.24
2023-02-06T01:36:10.838Z,-6.23
2023-02-06T01:38:39.378Z,-6.28
2023-02-06T01:41:08.380Z,-6.35
2023-02-06T01:43:40.061Z,-6.33
2023-02-06T01:46:08.904Z,-6.28
2023-02-06T01:48:42.222Z,-6.18
2023-02-06T01:51:14.772Z,-6.06
2023-02-06T01:53:45.311Z,-5.97
2023-02-06T01:56:19.668Z,-5.91
2023-02-06T01:58:53.019Z,-6.00
2023-02-06T02:01:21.724Z,-5.91
2023-02-06T02:03:53.657Z,-5.85
2023-02-06T02:06:25.049Z,-5.90
2023-02-06T02:08:58.234Z,-5.89
2023-02-06T02:11:29.574Z,-6.07
2023-02-06T02:13:59.535Z,-6.20
2023-02-06T02:16:40.183Z,-6.26
2023-02-06T02:19:34.725Z,-6.25
2023-02-06T02:22:18.381Z,-6.19
2023-02-06T02:25:06.138Z,-6.28
2023-02-06T02:28:02.951Z,-6.23
2023-02-06T02:30:51.180Z,-6.15
2023-02-06T02:33:42.863Z,-6.19
2023-02-06T02:36:16.314Z,-6.14
2023-02-06T02:38:55.331Z,-6.07
2023-02-06T02:41:30.607Z,-6.03
2023-02-06T02:44:06.468Z,-5.94
2023-02-06T02:46:39.791Z,-6.10
2023-02-06T02:49:12.414Z,-6.27
2023-02-06T02:51:43.183Z,-6.37
2023-02-06T02:54:11.567Z,-6.38
2023-02-06T02:56:40.382Z,-6.41
2023-02-06T02:59:12.581Z,-6.48
2023-02-06T03:01:50.228Z,-6.47
2023-02-06T03:04:24.123Z,-6.44
2023-02-06T03:07:04.643Z,-6.44
2023-02-06T03:09:46.853Z,-6.38
2023-02-06T03:12:23.197Z,-6.23
2023-02-06T03:14:56.833Z,-6.17
2023-02-06T03:17:34.629Z,-6.23
2023-02-06T03:20:07.860Z,-6.44
2023-02-06T03:22:38.535Z,-6.62
2023-02-06T03:25:13.160Z,-6.74
2023-02-06T03:27:44.538Z,-6.71
2023-02-06T03:30:18.648Z,-6.56
2023-02-06T03:32:51.129Z,-6.56
2023-02-06T03:35:23.649Z,-6.60
2023-02-06T03:37:53.817Z,-6.64
2023-02-06T03:40:22.669Z,-6.75
2023-02-06T03:42:57.200Z,-6.87
2023-02-06T03:45:29.926Z,-6.99
2023-02-06T03:48:02.147Z,-6.93
2023-02-06T03:50:32.182Z,-6.77
2023-02-06T03:53:03.609Z,-6.59
2023-02-06T03:55:31.848Z,-6.41
2023-02-06T03:58:04.679Z,-6.39
2023-02-06T04:00:33.860Z,-6.39
2023-02-06T04:03:02.581Z,-6.39
2023-02-06T04:05:30.792Z,-6.43
2023-02-06T04:07:58.916Z,-6.54
2023-02-06T04:10:28.528Z,-6.59
2023-02-06T04:12:57.102Z,-6.62
2023-02-06T04:15:25.651Z,-6.60
2023-02-06T04:18:00.558Z,-6.73
2023-02-06T04:20:29.856Z,-6.79
2023-02-06T04:22:58.416Z,-6.77
2023-02-06T04:25:27.992Z,-6.82
2023-02-06T04:27:56.144Z,-6.86
2023-02-06T04:30:24.548Z,-6.79
2023-02-06T04:32:52.982Z,-6.87
2023-02-06T04:35:21.594Z,-6.98
2023-02-06T04:37:49.803Z,-6.98
2023-02-06T04:40:18.400Z,-6.93
2023-02-06T04:42:48.151Z,-6.99
2023-02-06T04:45:16.329Z,-6.97
2023-02-06T04:47:45.074Z,-6.88
2023-02-06T04:50:13.267Z,-6.77
2023-02-06T04:52:41.395Z,-6.71
2023-02-06T04:55:10.288Z,-6.79
2023-02-06T04:57:38.665Z,-6.84
2023-02-06T05:00:10.431Z,-6.68
2023-02-06T05:02:39.965Z,-6.55
2023-02-06T05:05:09.677Z,-6.51
2023-02-06T05:07:38.110Z,-6.57
2023-02-06T05:10:06.624Z,-6.53
2023-02-06T05:12:34.894Z,-6.62
2023-02-06T05:15:03.022Z,-6.66
2023-02-06T05:17:32.525Z,-6.64
2023-02-06T05:20:00.967Z,-6.59
2023-02-06T05:22:29.304Z,-6.49
2023-02-06T05:24:57.414Z,-6.47
2023-02-06T05:27:25.812Z,-6.46
2023-02-06T05:29:53.884Z,-6.36
2023-02-06T05:32:22.171Z,-6.41
2023-02-06T05:34:51.553Z,-6.40
2023-02-06T05:37:19.714Z,-6.27
2023-02-06T05:39:47.813Z,-6.22
2023-02-06T05:42:16.069Z,-6.19
2023-02-06T05:44:44.264Z,-6.23
2023-02-06T05:47:12.431Z,-6.30
2023-02-06T05:49:40.585Z,-6.43
2023-02-06T05:52:10.051Z,-6.51
2023-02-06T05:54:38.210Z,-6.55
2023-02-06T05:57:06.515Z,-6.59
2023-02-06T05:59:34.820Z,-6.66
2023-02-06T06:02:04.220Z,-6.70
2023-02-06T06:04:32.363Z,-6.73
2023-02-06T06:07:00.633Z,-6.74
2023-02-06T06:09:30.082Z,-6.81
2023-02-06T06:11:58.272Z,-6.75
2023-02-06T06:14:26.461Z,-6.64
2023-02-06T06:16:54.622Z,-6.62
2023-02-06T06:19:22.701Z,-6.62
2023-02-06T06:21:51.021Z,-6.58
2023-02-06T06:24:19.254Z,-6.60
2023-02-06T06:26:48.971Z,-6.64
2023-02-06T06:29:17.121Z,-6.72
2023-02-06T06:31:45.382Z,-6.77
2023-02-06T06:34:13.574Z,-6.75
2023-02-06T06:36:41.764Z,-6.75
2023-02-06T06:39:10.895Z,-6.80
2023-02-06T06:41:39.541Z,-6.85
2023-02-06T06:44:08.940Z,-6.95
2023-02-06T06:46:37.212Z,-6.96
2023-02-06T06:49:05.630Z,-6.92
2023-02-06T06:51:33.840Z,-6.94
2023-02-06T06:54:02.040Z,-7.02
2023-02-06T06:56:30.565Z,-7.04
2023-02-06T06:58:58.680Z,-7.05
2023-02-06T07:01:28.149Z,-6.99
2023-02-06T07:03:56.241Z,-7.03
2023-02-06T07:06:24.438Z,-7.07
2023-02-06T07:08:52.581Z,-7.06
2023-02-06T07:11:20.982Z,-7.10
2023-02-06T07:13:49.233Z,-7.19
2023-02-06T07:16:17.503Z,-7.23
2023-02-06T07:18:47.451Z,-7.22
2023-02-06T07:21:16.062Z,-7.18
2023-02-06T07:23:44.182Z,-7.22
2023-02-06T07:26:12.924Z,-7.18
2023-02-06T07:28:42.253Z,-7.18
2023-02-06T07:31:10.866Z,-7.13
2023-02-06T07:33:38.975Z,-7.14
2023-02-06T07:36:11.651Z,-7.17
2023-02-06T07:38:39.832Z,-7.11
2023-02-06T07:41:08.764Z,-7.14
2023-02-06T07:43:36.991Z,-7.30
2023-02-06T07:46:06.652Z,-7.34
2023-02-06T07:48:34.816Z,-7.29
2023-02-06T07:51:07.002Z,-7.22
2023-02-06T07:53:37.614Z,-7.19
2023-02-06T07:56:11.901Z,-7.21
2023-02-06T07:58:40.196Z,-7.28
2023-02-06T08:01:08.911Z,-7.28
2023-02-06T08:03:37.468Z,-7.24
2023-02-06T08:06:09.369Z,-7.22
2023-02-06T08:08:39.123Z,-7.18
2023-02-06T08:11:08.135Z,-7.09
2023-02-06T08:13:37.168Z,-7.00
2023-02-06T08:16:07.451Z,-6.93
2023-02-06T08:18:36.000Z,-6.90
2023-02-06T08:21:05.008Z,-6.84
2023-02-06T08:23:33.740Z,-6.83
2023-02-06T08:26:04.880Z,-6.76
2023-02-06T08:28:35.216Z,-6.71
2023-02-06T08:31:10.622Z,-6.53
2023-02-06T08:33:38.991Z,-6.28
2023-02-06T08:36:08.327Z,-6.05
2023-02-06T08:38:37.354Z,-5.89
2023-02-06T08:41:14.954Z,-5.71
2023-02-06T08:43:43.252Z,-5.47
2023-02-06T08:46:11.398Z,-5.36
2023-02-06T08:48:39.818Z,-5.20
2023-02-06T08:51:09.480Z,-5.08
2023-02-06T08:53:38.372Z,-5.01
2023-02-06T08:56:10.924Z,-4.88
2023-02-06T08:58:39.995Z,-4.72
2023-02-06T09:01:08.907Z,-4.58
2023-02-06T09:03:37.639Z,-4.39
2023-02-06T09:06:10.253Z,-4.14
2023-02-06T09:08:39.615Z,-4.05
2023-02-06T09:11:10.341Z,-3.93
2023-02-06T09:13:39.289Z,-3.83
2023-02-06T09:16:09.108Z,-3.85
2023-02-06T09:18:38.870Z,-3.85
2023-02-06T09:21:10.206Z,-3.77
2023-02-06T09:23:39.971Z,-3.64
2023-02-06T09:26:10.005Z,-3.58
2023-02-06T09:28:38.458Z,-3.47
2023-02-06T09:31:07.836Z,-3.40
2023-02-06T09:33:36.368Z,-3.33
2023-02-06T09:36:06.477Z,-3.20
2023-02-06T09:38:34.856Z,-3.10
2023-02-06T09:41:07.796Z,-3.02
2023-02-06T09:43:37.532Z,-2.93
2023-02-06T09:46:11.536Z,-2.85
2023-02-06T09:48:40.704Z,-2.77
2023-02-06T09:51:16.612Z,-2.66
2023-02-06T09:53:56.234Z,-2.52
2023-02-06T09:56:34.204Z,-2.37
2023-02-06T09:59:14.384Z,-2.23
2023-02-06T10:01:46.917Z,-2.00
2023-02-06T10:04:35.434Z,-1.84
2023-02-06T10:07:18.874Z,-1.72
2023-02-06T10:09:52.122Z,-1.66
2023-02-06T10:12:27.062Z,-1.54
2023-02-06T10:15:00.465Z,-1.41
2023-02-06T10:17:32.271Z,-1.34
2023-02-06T10:20:05.262Z,-1.16
2023-02-06T10:22:41.216Z,-0.86
2023-02-06T10:25:23.862Z,-0.67
2023-02-06T10:27:57.772Z,-0.56
2023-02-06T10:30:34.362Z,-0.55
2023-02-06T10:33:14.377Z,-0.57
2023-02-06T10:36:00.512Z,-0.56
2023-02-06T10:38:44.391Z,-0.40
2023-02-06T10:41:24.489Z,-0.37
2023-02-06T10:43:57.093Z,-0.25
2023-02-06T10:46:42.278Z,-0.12
2023-02-06T10:49:19.941Z,0.11
2023-02-06T10:51:52.891Z,0.33
2023-02-06T10:54:25.630Z,0.53
2023-02-06T10:56:57.116Z,0.68
2023-02-06T10:59:30.996Z,0.88
2023-02-06T11:02:16.647Z,1.21
2023-02-06T11:04:50.814Z,1.72
2023-02-06T11:07:25.209Z,1.91
2023-02-06T11:09:53.932Z,1.87
2023-02-06T11:12:31.313Z,2.17
2023-02-06T11:15:05.179Z,2.70
2023-02-06T11:17:35.384Z,3.17
2023-02-06T11:20:18.128Z,3.48
2023-02-06T11:22:52.816Z,3.76
2023-02-06T11:25:26.408Z,4.00
2023-02-06T11:27:55.090Z,4.15
2023-02-06T11:30:31.046Z,4.33
2023-02-06T11:33:05.160Z,4.69
2023-02-06T11:35:38.523Z,4.88
2023-02-06T11:38:15.348Z,4.87
2023-02-06T11:40:44.481Z,4.42
2023-02-06T11:43:21.738Z,3.97
2023-02-06T11:45:53.916Z,3.69
2023-02-06T11:48:35.584Z,3.47
2023-02-06T11:51:04.379Z,3.37
2023-02-06T11:53:32.970Z,3.34
2023-02-06T11:56:05.131Z,3.31
2023-02-06T11:58:34.138Z,3.28
2023-02-06T12:01:05.416Z,3.29
2023-02-06T12:03:37.716Z,3.35
2023-02-06T12:06:13.515Z,3.48
2023-02-06T12:08:47.899Z,4.18
2023-02-06T12:11:23.781Z,5.06
2023-02-06T12:13:57.209Z,5.58
2023-02-06T12:16:26.544Z,5.95
2023-02-06T12:18:58.879Z,6.06
2023-02-06T12:21:35.361Z,6.13
2023-02-06T12:24:06.942Z,6.18
2023-02-06T12:26:38.232Z,5.60
2023-02-06T12:29:15.184Z,4.93
2023-02-06T12:31:48.823Z,4.56
2023-02-06T12:34:22.796Z,4.38
2023-02-06T12:37:00.188Z,4.30
2023-02-06T12:39:33.248Z,4.31
2023-02-06T12:42:17.218Z,4.29
2023-02-06T12:44:53.168Z,4.30
2023-02-06T12:47:26.781Z,4.32
2023-02-06T12:50:03.088Z,4.30
2023-02-06T12:52:41.060Z,4.24
2023-02-06T12:55:19.183Z,4.26
2023-02-06T12:58:13.383Z,4.25
2023-02-06T13:01:01.319Z,4.23
2023-02-06T13:03:35.321Z,4.24
2023-02-06T13:06:13.491Z,4.28
2023-02-06T13:08:47.372Z,4.28
2023-02-06T13:11:45.435Z,4.33
2023-02-06T13:14:21.900Z,4.42
2023-02-06T13:16:53.789Z,4.43
2023-02-06T13:19:26.023Z,4.45
2023-02-06T13:22:34.031Z,4.43
2023-02-06T13:25:03.454Z,4.35
2023-02-06T13:27:39.200Z,4.32
2023-02-06T13:30:44.709Z,4.32
2023-02-06T13:33:16.904Z,4.43
2023-02-06T13:35:56.593Z,4.57
2023-02-06T13:38:37.711Z,4.64
2023-02-06T13:41:38.542Z,4.66
2023-02-06T13:44:16.821Z,4.64
2023-02-06T13:47:20.794Z,4.71
2023-02-06T13:50:20.980Z,4.71
2023-02-06T13:53:05.096Z,4.73
2023-02-06T13:55:47.051Z,4.74
2023-02-06T13:58:36.495Z,4.72
2023-02-06T14:01:05.986Z,4.69
2023-02-06T14:03:38.305Z,4.70
2023-02-06T14:06:24.933Z,4.69
2023-02-06T14:09:04.551Z,4.59
2023-02-06T14:12:00.413Z,4.51
2023-02-06T14:14:41.254Z,4.44
2023-02-06T14:17:25.821Z,4.36
2023-02-06T14:19:59.911Z,4.36
2023-02-06T14:22:34.357Z,4.34
2023-02-06T14:25:20.601Z,4.35
2023-02-06T14:28:07.024Z,4.36
2023-02-06T14:30:44.208Z,4.35
2023-02-06T14:33:28.940Z,4.43
2023-02-06T14:36:08.502Z,4.59
2023-02-06T14:38:59.457Z,4.63
2023-02-06T14:41:30.941Z,4.61
2023-02-06T14:44:01.328Z,4.57
2023-02-06T14:46:30.764Z,4.54
2023-02-06T14:49:01.250Z,4.47
2023-02-06T14:51:32.336Z,4.39
2023-02-06T14:54:03.223Z,4.32
2023-02-06T14:56:33.900Z,4.32
2023-02-06T14:59:22.611Z,4.25
2023-02-06T15:01:54.741Z,4.29
2023-02-06T15:04:26.130Z,4.28
2023-02-06T15:06:56.522Z,4.16
2023-02-06T15:09:28.085Z,4.01
2023-02-06T15:11:58.404Z,3.97
2023-02-06T15:14:35.087Z,3.99
2023-02-06T15:17:04.727Z,4.03
2023-02-06T15:19:35.733Z,4.06
2023-02-06T15:22:06.583Z,4.10
2023-02-06T15:24:47.696Z,4.15
2023-02-06T15:27:25.569Z,4.06
2023-02-06T15:29:56.096Z,3.97
2023-02-06T15:32:29.993Z,3.79
2023-02-06T15:34:58.271Z,3.69
2023-02-06T15:37:30.207Z,3.57
2023-02-06T15:40:06.077Z,3.45
2023-02-06T15:42:34.728Z,3.36
2023-02-06T15:45:05.689Z,3.31
2023-02-06T15:47:34.717Z,3.25
2023-02-06T15:50:11.111Z,3.16
2023-02-06T15:52:43.151Z,3.10
2023-02-06T15:55:25.102Z,3.05
2023-02-06T15:57:55.685Z,3.06
2023-02-06T16:00:29.044Z,3.02
2023-02-06T16:03:02.941Z,2.99
2023-02-06T16:05:34.682Z,2.86
2023-02-06T16:08:05.405Z,2.67
2023-02-06T16:10:37.921Z,2.49
2023-02-06T16:13:12.517Z,2.27
2023-02-06T16:16:01.818Z,2.10
2023-02-06T16:18:34.081Z,1.91
2023-02-06T16:21:24.504Z,1.74
2023-02-06T16:24:07.230Z,1.55
2023-02-06T16:26:44.324Z,1.35
2023-02-06T16:29:25.079Z,1.12
2023-02-06T16:32:03.154Z,0.88
2023-02-06T16:34:37.354Z,0.67
2023-02-06T16:37:12.585Z,0.44
2023-02-06T16:39:43.456Z,0.19
2023-02-06T16:42:16.313Z,-0.04
2023-02-06T16:44:48.146Z,-0.18
2023-02-06T16:47:21.755Z,-0.34
2023-02-06T16:49:51.209Z,-0.52
2023-02-06T16:52:23.017Z,-0.71
2023-02-06T16:54:52.074Z,-0.74
2023-02-06T16:57:26.217Z,-0.77
2023-02-06T16:59:54.955Z,-0.83
2023-02-06T17:02:25.071Z,-0.91
2023-02-06T17:04:54.084Z,-0.94
2023-02-06T17:07:25.252Z,-0.89
2023-02-06T17:09:57.328Z,-0.85
2023-02-06T17:12:26.636Z,-0.85
2023-02-06T17:14:55.267Z,-0.91
2023-02-06T17:17:25.176Z,-0.99
2023-02-06T17:19:54.280Z,-1.05
2023-02-06T17:22:23.020Z,-1.08
2023-02-06T17:24:54.052Z,-1.07
2023-02-06T17:27:27.521Z,-1.06
2023-02-06T17:29:58.715Z,-1.07
2023-02-06T17:32:31.487Z,-1.10
2023-02-06T17:35:04.073Z,-1.08
2023-02-06T17:37:34.283Z,-1.07
2023-02-06T17:40:05.647Z,-1.07
2023-02-06T17:42:37.812Z,-1.08
2023-02-06T17:45:10.967Z,-1.05
2023-02-06T17:47:45.019Z,-0.99
2023-02-06T17:50:20.238Z,-0.93
2023-02-06T17:52:54.064Z,-0.93
2023-02-06T17:55:25.564Z,-0.92
2023-02-06T17:57:58.785Z,-0.93
2023-02-06T18:00:28.679Z,-0.93
2023-02-06T18:03:02.449Z,-0.98
2023-02-06T18:05:34.365Z,-1.00
2023-02-06T18:08:05.364Z,-1.03
2023-02-06T18:10:35.459Z,-1.06
2023-02-06T18:13:07.616Z,-1.10
2023-02-06T18:15:38.557Z,-1.15
2023-02-06T18:18:08.388Z,-1.20
2023-02-06T18:20:37.148Z,-1.29
2023-02-06T18:23:05.950Z,-1.39
2023-02-06T18:25:34.797Z,-1.52
2023-02-06T18:28:03.555Z,-1.66
2023-02-06T18:30:32.271Z,-1.81
2023-02-06T18:33:02.624Z,-1.90
2023-02-06T18:35:37.963Z,-1.94
2023-02-06T18:38:11.784Z,-1.95
2023-02-06T18:40:42.911Z,-2.00
2023-02-06T18:43:10.678Z,-2.09
2023-02-06T18:45:42.332Z,-2.24
2023-02-06T18:48:17.471Z,-2.39
2023-02-06T18:50:53.524Z,-2.44
2023-02-06T18:53:24.766Z,-2.43
2023-02-06T18:56:03.711Z,-2.39
2023-02-06T18:58:39.773Z,-2.38
2023-02-06T19:01:13.786Z,-2.42
2023-02-06T19:03:50.773Z,-2.47
2023-02-06T19:06:23.221Z,-2.54
2023-02-06T19:08:51.698Z,-2.57
2023-02-06T19:11:20.097Z,-2.58
2023-02-06T19:13:48.560Z,-2.57
2023-02-06T19:16:19.155Z,-2.59
2023-02-06T19:18:49.411Z,-2.71
2023-02-06T19:21:19.450Z,-2.73
2023-02-06T19:23:55.088Z,-2.78
2023-02-06T19:26:24.540Z,-2.82
2023-02-06T19:28:53.927Z,-2.81
2023-02-06T19:31:24.733Z,-2.75
2023-02-06T19:33:54.438Z,-2.65
2023-02-06T19:36:26.512Z,-2.58
2023-02-06T19:38:57.881Z,-2.55
2023-02-06T19:41:28.754Z,-2.52
2023-02-06T19:43:58.367Z,-2.49
2023-02-06T19:46:28.024Z,-2.42
2023-02-06T19:48:57.327Z,-2.43
2023-02-06T19:51:27.740Z,-2.49
2023-02-06T19:53:58.951Z,-2.49
2023-02-06T19:56:31.492Z,-2.52
2023-02-06T19:59:01.368Z,-2.52
2023-02-06T20:01:31.148Z,-2.51
2023-02-06T20:04:00.736Z,-2.50
2023-02-06T20:06:34.837Z,-2.52
2023-02-06T20:09:06.104Z,-2.58
2023-02-06T20:11:35.043Z,-2.65
2023-02-06T20:14:03.290Z,-2.73
2023-02-06T20:16:34.880Z,-2.78
2023-02-06T20:19:07.805Z,-2.83
2023-02-06T20:21:39.360Z,-2.91
2023-02-06T20:24:12.797Z,-2.96
2023-02-06T20:26:42.722Z,-3.01
2023-02-06T20:29:24.907Z,-3.09
2023-02-06T20:31:54.214Z,-3.12
2023-02-06T20:34:22.880Z,-3.07
2023-02-06T20:36:52.323Z,-3.02
2023-02-06T20:39:22.390Z,-3.03
2023-02-06T20:41:50.966Z,-3.21
2023-02-06T20:44:20.798Z,-3.33
2023-02-06T20:46:49.758Z,-3.36
2023-02-06T20:49:19.913Z,-3.30
2023-02-06T20:51:49.985Z,-3.22
2023-02-06T20:54:19.155Z,-3.21
2023-02-06T20:56:48.883Z,-3.18
2023-02-06T20:59:19.448Z,-3.15
2023-02-06T21:01:47.796Z,-3.20
2023-02-06T21:04:17.286Z,-3.31
2023-02-06T21:06:47.973Z,-3.47
2023-02-06T21:09:16.252Z,-3.59
2023-02-06T21:11:46.465Z,-3.66
2023-02-06T21:14:17.274Z,-3.75
2023-02-06T21:16:45.564Z,-3.81
2023-02-06T21:19:15.953Z,-3.85
2023-02-06T21:21:46.354Z,-3.86
2023-02-06T21:24:15.716Z,-3.87
2023-02-06T21:26:44.530Z,-3.83
2023-02-06T21:29:15.780Z,-3.80
2023-02-06T21:31:44.971Z,-3.78
2023-02-06T21:34:14.640Z,-3.59
2023-02-06T21:36:43.543Z,-3.50
2023-02-06T21:39:15.535Z,-3.51
2023-02-06T21:41:44.020Z,-3.58
2023-02-06T21:44:12.252Z,-3.65
2023-02-06T21:46:41.718Z,-3.71
2023-02-06T21:49:11.662Z,-3.79
2023-02-06T21:51:40.571Z,-3.86
2023-02-06T21:54:08.883Z,-3.91
2023-02-06T21:56:39.136Z,-3.95
2023-02-06T21:59:07.927Z,-4.05
2023-02-06T22:01:36.651Z,-4.09
2023-02-06T22:04:06.273Z,-4.16
2023-02-06T22:06:36.905Z,-4.14
2023-02-06T22:09:07.836Z,-4.14
2023-02-06T22:11:38.157Z,-4.14
2023-02-06T22:14:09.059Z,-4.08
2023-02-06T22:16:37.355Z,-4.03
2023-02-06T22:19:07.613Z,-4.09
2023-02-06T22:21:36.401Z,-4.14
2023-02-06T22:24:08.222Z,-4.11
2023-02-06T22:26:38.960Z,-4.14
2023-02-06T22:29:08.488Z,-4.11
2023-02-06T22:31:37.161Z,-4.00
2023-02-06T22:34:11.794Z,-3.88
2023-02-06T22:36:40.211Z,-3.80
2023-02-06T22:39:09.926Z,-3.76
2023-02-06T22:41:40.717Z,-3.79
2023-02-06T22:44:09.109Z,-3.88
2023-02-06T22:46:39.241Z,-3.94
2023-02-06T22:49:10.233Z,-4.03
2023-02-06T22:51:40.106Z,-3.98
2023-02-06T22:54:09.804Z,-3.89
2023-02-06T22:56:39.904Z,-3.76
2023-02-06T22:59:11.242Z,-3.70
2023-02-06T23:01:42.072Z,-3.65
2023-02-06T23:04:14.030Z,-3.51
2023-02-06T23:06:43.076Z,-3.44
2023-02-06T23:09:15.246Z,-3.44
2023-02-06T23:11:43.698Z,-3.48
2023-02-06T23:14:12.823Z,-3.50
2023-02-06T23:16:41.229Z,-3.46
2023-02-06T23:19:12.199Z,-3.43
2023-02-06T23:21:42.289Z,-3.46
2023-02-06T23:24:12.002Z,-3.49
2023-02-06T23:26:42.575Z,-3.51
2023-02-06T23:29:15.756Z,-3.55
2023-02-06T23:31:44.261Z,-3.64
2023-02-06T23:34:14.279Z,-3.69
2023-02-06T23:36:42.513Z,-3.80
2023-02-06T23:39:11.834Z,-3.85
2023-02-06T23:41:40.095Z,-3.91
2023-02-06T23:44:10.106Z,-3.95
2023-02-06T23:46:41.228Z,-3.96
2023-02-06T23:49:10.344Z,-3.88
2023-02-06T23:51:39.835Z,-3.83
2023-02-06T23:54:09.400Z,-3.84
2023-02-06T23:56:38.202Z,-3.88
2023-02-06T23:59:07.321Z,-3.73
